Time;durP1;ratioP1;P1;durP2;ratioP2;P2;SDS_P1;SDS_P2;PMS_P1;PMS_P2;Temp;Humidity;BMP_temperature;BMP_pressure;BME280_temperature;BME280_humidity;BME280_pressure;Samples;Min_cycle;Max_cycle;Signal;HPM_P1;HPM_P2
2023/05/13 00:00:03;;;;;;;325.83;122.38;;;;;;;11.00;65.09;100129.78;310616;31;1222;-76
2023/05/13 00:00:14;;;;;;;327.80;120.83;;;;;;;10.98;65.19;100124.59;307956;31;4022;-76
2023/05/13 00:00:25;;;;;;;329.58;121.85;;;;;;;11.03;65.21;100131.47;304687;32;5624;-76
2023/05/13 00:00:36;;;;;;;332.63;123.88;;;;;;;10.98;65.24;100126.38;301034;32;7327;-76
2023/05/13 00:00:46;;;;;;;327.10;123.93;;;;;;;10.94;65.39;100128.25;300093;32;952;-77
2023/05/13 00:00:57;;;;;;;330.23;125.37;;;;;;;10.95;65.42;100129.94;298476;32;6395;-77
2023/05/13 00:01:07;;;;;;;332.67;125.30;;;;;;;10.98;65.46;100124.59;299385;32;6378;-76
2023/05/13 00:01:17;;;;;;;334.63;126.63;;;;;;;10.99;65.53;100128.94;299140;33;774;-76
2023/05/13 00:01:28;;;;;;;331.25;124.68;;;;;;;11.07;65.37;100133.06;299652;32;5407;-76
2023/05/13 00:01:40;;;;;;;328.00;124.23;;;;;;;11.09;64.97;100131.25;300188;32;6091;-76
2023/05/13 00:01:50;;;;;;;326.67;123.88;;;;;;;11.11;65.31;100132.06;298912;32;5207;-76
2023/05/13 00:02:01;;;;;;;325.60;124.90;;;;;;;11.11;65.11;100121.56;299925;32;1576;-76
2023/05/13 00:02:11;;;;;;;325.23;125.28;;;;;;;11.17;65.15;100131.84;294060;33;4772;-76
2023/05/13 00:02:22;;;;;;;325.63;126.23;;;;;;;11.17;65.15;100130.06;294116;33;6323;-76
2023/05/13 00:02:32;;;;;;;323.87;125.13;;;;;;;11.17;65.27;100137.09;292947;33;3500;-76
2023/05/13 00:02:42;;;;;;;328.60;126.47;;;;;;;11.17;65.16;100129.22;290637;33;7762;-76
2023/05/13 00:02:53;;;;;;;330.38;125.95;;;;;;;11.17;65.33;100124.84;291547;33;9422;-76
2023/05/13 00:03:03;;;;;;;337.97;129.93;;;;;;;11.21;65.39;100131.69;293092;33;1312;-76
2023/05/13 00:03:14;;;;;;;335.65;129.90;;;;;;;11.25;65.00;100132.44;291375;33;8326;-76
2023/05/13 00:03:24;;;;;;;333.33;129.57;;;;;;;11.27;64.95;100135.81;289758;33;9299;-76
2023/05/13 00:03:35;;;;;;;327.33;127.22;;;;;;;11.30;65.06;100136.56;285636;34;7314;-76
2023/05/13 00:03:46;;;;;;;325.97;126.97;;;;;;;11.31;64.78;100134.81;282658;35;1439;-76
2023/05/13 00:03:56;;;;;;;326.13;126.80;;;;;;;11.27;64.81;100131.44;284852;34;8390;-76
2023/05/13 00:05:52;;;;;;;319.17;117.19;;;;;;;11.19;65.03;100143.13;2497382;27;20573;-76
2023/05/13 00:06:02;;;;;;;323.43;122.17;;;;;;;11.21;64.92;100138.69;352906;28;1618;-75
2023/05/13 00:06:13;;;;;;;323.15;123.18;;;;;;;11.20;64.91;100134.34;349112;28;1611;-75
2023/05/13 00:06:23;;;;;;;324.13;123.33;;;;;;;11.08;65.01;100132.16;348716;28;1199;-75
2023/05/13 00:06:34;;;;;;;324.27;120.65;;;;;;;11.07;65.27;100140.91;348777;28;1493;-75
2023/05/13 00:06:45;;;;;;;326.38;121.03;;;;;;;10.99;65.52;100131.56;346136;28;840;-76
2023/05/13 00:06:55;;;;;;;327.10;122.07;;;;;;;11.00;65.48;100143.75;347657;28;883;-75
2023/05/13 00:07:05;;;;;;;326.52;123.05;;;;;;;10.94;65.65;100141.34;348749;28;1307;-75
2023/05/13 00:07:16;;;;;;;326.17;122.37;;;;;;;10.94;66.00;100137.84;348849;28;836;-75
2023/05/13 00:07:27;;;;;;;327.83;123.03;;;;;;;10.96;65.83;100133.41;350194;28;1372;-75
2023/05/13 00:07:37;;;;;;;326.95;122.20;;;;;;;11.03;65.85;100144.56;348742;28;1238;-75
2023/05/13 00:07:47;;;;;;;326.02;122.32;;;;;;;11.06;65.81;100141.81;347962;28;1313;-77
2023/05/13 00:08:05;;;;;;;324.50;121.73;;;;;;;11.09;65.91;100136.50;348039;28;1584;-77
2023/05/13 00:08:16;;;;;;;318.83;120.38;;;;;;;11.15;65.52;100138.91;350083;28;1082;-76
2023/05/13 00:08:26;;;;;;;319.67;120.45;;;;;;;11.11;65.34;100140.75;347514;28;844;-76
2023/05/13 00:08:36;;;;;;;321.30;121.77;;;;;;;11.08;65.42;100138.25;348859;28;1240;-76
2023/05/13 00:08:47;;;;;;;322.93;122.90;;;;;;;11.04;65.67;100143.66;350049;28;1226;-76
2023/05/13 00:08:58;;;;;;;323.57;121.77;;;;;;;11.02;65.68;100138.47;350212;28;901;-76
2023/05/13 00:09:08;;;;;;;326.42;122.35;;;;;;;11.03;65.73;100144.56;347528;28;1120;-76
2023/05/13 00:09:19;;;;;;;328.42;122.22;;;;;;;10.96;65.90;100139.53;348577;28;1217;-76
2023/05/13 00:09:29;;;;;;;328.20;122.23;;;;;;;10.92;66.06;100134.44;350073;28;1334;-76
2023/05/13 00:09:40;;;;;;;326.77;122.07;;;;;;;10.88;66.23;100143.28;347261;28;1400;-76
2023/05/13 00:09:50;;;;;;;324.85;123.05;;;;;;;10.88;66.21;100144.16;348559;28;1423;-76
2023/05/13 00:10:02;;;;;;;324.98;122.97;;;;;;;10.89;66.72;100137.16;350088;28;1099;-76
2023/05/13 00:10:13;;;;;;;323.60;121.45;;;;;;;10.90;66.12;100141.50;348675;28;1538;-76
2023/05/13 00:10:23;;;;;;;321.30;117.85;;;;;;;10.90;66.28;100137.09;348823;28;911;-76
2023/05/13 00:10:34;;;;;;;322.83;117.87;;;;;;;10.88;66.50;100136.28;347349;28;1258;-76
2023/05/13 00:10:45;;;;;;;325.85;118.30;;;;;;;10.89;66.38;100140.63;346199;28;896;-76
2023/05/13 00:10:56;;;;;;;325.87;119.53;;;;;;;10.93;66.27;100141.38;347419;28;1204;-76
2023/05/13 00:11:06;;;;;;;325.50;118.85;;;;;;;10.90;66.42;100142.34;347388;28;1342;-77
2023/05/13 00:11:17;;;;;;;324.50;119.95;;;;;;;10.85;66.41;100125.94;347423;28;1257;-76
2023/05/13 00:11:27;;;;;;;325.27;120.77;;;;;;;10.85;66.64;100141.63;350043;28;1345;-75
2023/05/13 00:11:37;;;;;;;327.27;121.63;;;;;;;10.85;66.66;100136.41;347359;28;1423;-75
2023/05/13 00:11:48;;;;;;;328.37;120.80;;;;;;;10.90;66.51;100136.25;342993;28;3556;-75
2023/05/13 00:11:58;;;;;;;328.08;119.90;;;;;;;10.91;66.49;100133.56;343017;28;3570;-75
2023/05/13 00:12:09;;;;;;;327.87;120.13;;;;;;;10.92;66.33;100139.66;345645;28;2509;-75
2023/05/13 00:12:19;;;;;;;333.63;123.20;;;;;;;10.91;66.28;100138.81;345825;28;1227;-75
2023/05/13 00:12:30;;;;;;;336.50;124.60;;;;;;;10.89;66.66;100130.16;346554;28;4384;-76
2023/05/13 00:12:40;;;;;;;335.80;124.70;;;;;;;10.86;66.74;100138.13;346085;28;797;-76
2023/05/13 00:12:58;;;;;;;331.20;123.27;;;;;;;10.85;66.79;100135.53;347374;28;821;-76
2023/05/13 00:13:08;;;;;;;335.70;123.88;;;;;;;10.87;66.73;100137.22;346089;28;852;-76
2023/05/13 00:13:18;;;;;;;333.87;122.70;;;;;;;10.86;66.82;100135.50;343125;28;1480;-75
2023/05/13 00:13:29;;;;;;;327.15;121.72;;;;;;;10.85;67.25;100136.41;343137;28;1219;-75
2023/05/13 00:13:39;;;;;;;327.87;122.93;;;;;;;10.85;66.75;100141.63;342467;28;1472;-75
2023/05/13 00:13:50;;;;;;;330.20;122.97;;;;;;;10.83;66.68;100138.22;341776;28;1395;-78
2023/05/13 00:14:00;;;;;;;330.02;124.07;;;;;;;10.83;66.84;100134.78;341178;28;1477;-75
2023/05/13 00:14:11;;;;;;;329.07;124.03;;;;;;;10.79;66.91;100131.41;344663;28;1217;-75
2023/05/13 00:14:21;;;;;;;330.08;123.32;;;;;;;10.81;67.05;100132.22;342009;28;805;-75
2023/05/13 00:14:31;;;;;;;331.37;123.00;;;;;;;10.82;66.86;100139.16;341156;28;1791;-75
2023/05/13 00:14:42;;;;;;;330.55;123.03;;;;;;;10.82;67.02;100139.16;339388;28;1860;-75
2023/05/13 00:14:52;;;;;;;327.93;122.40;;;;;;;10.85;67.20;100132.94;336827;29;1187;-75
2023/05/13 00:15:03;;;;;;;328.98;119.93;;;;;;;10.84;67.04;100132.06;339290;29;1328;-75
2023/05/13 00:15:13;;;;;;;327.98;120.10;;;;;;;10.87;66.88;100134.59;338054;29;1119;-75
2023/05/13 00:15:24;;;;;;;328.67;121.60;;;;;;;10.89;66.85;100135.38;336184;29;1738;-75
2023/05/13 00:15:34;;;;;;;325.73;121.93;;;;;;;10.88;66.84;100138.06;337475;29;1261;-75
2023/05/13 00:15:45;;;;;;;329.13;122.35;;;;;;;10.86;66.75;100132.88;337860;29;1470;-75
2023/05/13 00:15:55;;;;;;;330.67;123.10;;;;;;;10.87;66.93;100131.13;335392;29;2508;-75
2023/05/13 00:16:05;;;;;;;331.75;124.13;;;;;;;10.90;67.00;100131.00;336177;29;1883;-75
2023/05/13 00:16:16;;;;;;;329.10;124.80;;;;;;;10.88;66.91;100131.06;333799;29;1839;-75
2023/05/13 00:16:27;;;;;;;327.67;123.60;;;;;;;10.86;66.83;100134.63;332110;29;2303;-75
2023/05/13 00:16:37;;;;;;;327.90;122.40;;;;;;;10.84;67.11;100132.06;331646;29;1175;-76
2023/05/13 00:16:48;;;;;;;327.17;120.83;;;;;;;10.84;66.92;100132.06;332252;29;2182;-76
2023/05/13 00:17:00;;;;;;;327.02;121.13;;;;;;;10.84;67.13;100136.44;331956;29;1683;-75
2023/05/13 00:17:11;;;;;;;326.58;121.22;;;;;;;10.84;67.06;100136.44;327955;30;949;-75
2023/05/13 00:17:21;;;;;;;328.83;121.90;;;;;;;10.84;67.35;100132.06;330421;29;1216;-75
2023/05/13 00:17:32;;;;;;;329.20;121.22;;;;;;;10.83;67.04;100130.34;332321;29;1680;-75
2023/05/13 00:17:42;;;;;;;333.27;123.03;;;;;;;10.81;67.15;100136.59;331255;29;1903;-75
2023/05/13 00:17:53;;;;;;;332.52;123.40;;;;;;;10.78;67.24;100132.31;326841;30;974;-76
2023/05/13 00:18:03;;;;;;;335.07;124.07;;;;;;;10.79;67.17;100134.00;328433;29;2151;-75
2023/05/13 00:18:13;;;;;;;331.50;122.57;;;;;;;10.83;67.38;100140.00;324977;30;2333;-76
2023/05/13 00:18:24;;;;;;;329.80;121.75;;;;;;;10.85;67.33;100136.41;320727;30;1770;-76
2023/05/13 00:18:35;;;;;;;327.05;120.65;;;;;;;10.84;67.43;100131.22;320955;30;2459;-76
2023/05/13 00:18:45;;;;;;;327.13;121.50;;;;;;;10.84;67.25;100126.84;323529;30;2447;-76
2023/05/13 00:18:55;;;;;;;327.13;120.72;;;;;;;10.88;67.13;100141.53;320814;30;1201;-75
2023/05/13 00:19:06;;;;;;;326.23;120.40;;;;;;;10.90;67.20;100131.88;322732;30;2569;-75
2023/05/13 00:19:16;;;;;;;327.00;121.73;;;;;;;10.92;66.74;100130.06;320103;30;1899;-75
2023/05/13 00:19:27;;;;;;;327.73;122.63;;;;;;;10.92;67.03;100134.44;315978;31;1453;-75
2023/05/13 00:19:37;;;;;;;329.27;122.73;;;;;;;10.96;67.05;100142.13;317387;31;926;-75
2023/05/13 00:19:47;;;;;;;329.85;119.50;;;;;;;10.98;66.59;100135.09;312194;31;1792;-75
2023/05/13 00:19:58;;;;;;;329.90;120.07;;;;;;;11.01;66.70;100134.13;309441;31;2116;-75
2023/05/13 00:20:08;;;;;;;328.13;120.45;;;;;;;11.04;66.81;100130.56;313024;31;1577;-75
2023/05/13 00:20:19;;;;;;;329.07;122.50;;;;;;;11.05;66.90;100138.34;313240;31;2954;-75
2023/05/13 00:20:29;;;;;;;329.52;123.10;;;;;;;11.05;66.58;100137.50;315729;31;3035;-75
2023/05/13 00:20:39;;;;;;;334.90;125.30;;;;;;;11.05;66.70;100140.13;315121;31;944;-75
2023/05/13 00:20:50;;;;;;;332.60;124.63;;;;;;;11.06;66.59;100141.81;309055;31;3436;-75
2023/05/13 00:21:00;;;;;;;333.13;123.70;;;;;;;11.06;66.56;100142.69;308076;31;3458;-75
2023/05/13 00:21:11;;;;;;;328.73;122.07;;;;;;;11.06;66.44;100141.81;309314;31;2567;-76
2023/05/13 00:21:22;;;;;;;329.57;122.47;;;;;;;11.09;66.42;100141.72;303645;32;3544;-75
2023/05/13 00:21:32;;;;;;;327.65;122.10;;;;;;;11.07;66.31;100136.53;304495;32;4179;-75
2023/05/13 00:21:43;;;;;;;331.98;122.60;;;;;;;11.11;66.31;100142.53;305700;32;2755;-75
2023/05/13 00:21:53;;;;;;;330.33;120.63;;;;;;;11.14;66.24;100145.03;307492;32;862;-75
2023/05/13 00:22:03;;;;;;;323.80;116.77;;;;;;;11.16;66.27;100143.22;305566;32;3645;-76
2023/05/13 00:22:14;;;;;;;321.00;116.43;;;;;;;11.17;66.17;100147.56;307362;31;3342;-76
2023/05/13 00:22:24;;;;;;;323.30;118.20;;;;;;;11.18;66.37;100142.25;309600;31;918;-76
2023/05/13 00:22:35;;;;;;;327.77;120.97;;;;;;;11.22;66.27;100148.25;307433;32;3979;-75
2023/05/13 00:22:45;;;;;;;327.40;122.30;;;;;;;11.23;66.07;100142.09;303016;32;4184;-75
2023/05/13 00:22:56;;;;;;;328.52;124.75;;;;;;;11.23;66.00;100135.09;302075;32;1229;-75
2023/05/13 00:23:06;;;;;;;329.77;126.43;;;;;;;11.25;66.07;100149.00;305433;31;4513;-75
2023/05/13 00:23:17;;;;;;;330.83;125.95;;;;;;;11.27;65.98;100143.69;306922;31;3925;-75
2023/05/13 00:23:27;;;;;;;329.90;125.40;;;;;;;11.23;65.87;100147.34;305736;32;4323;-75
2023/05/13 00:23:37;;;;;;;326.98;123.10;;;;;;;11.16;66.17;100144.09;305244;32;1302;-75
2023/05/13 00:23:48;;;;;;;328.50;123.63;;;;;;;11.13;65.99;100149.44;302830;32;3607;-75
2023/05/13 00:23:58;;;;;;;329.02;123.47;;;;;;;11.09;66.28;100142.56;298849;32;3109;-75
2023/05/13 00:24:09;;;;;;;329.40;123.40;;;;;;;11.09;66.33;100146.97;296947;33;1105;-75
2023/05/13 00:24:19;;;;;;;326.92;121.53;;;;;;;11.07;66.19;100148.78;300209;32;4316;-75
2023/05/13 00:24:30;;;;;;;326.47;120.83;;;;;;;11.02;66.52;100138.47;296973;33;5968;-75
2023/05/13 00:24:40;;;;;;;326.33;120.30;;;;;;;11.05;66.52;100146.22;293976;33;1207;-75
2023/05/13 00:24:50;;;;;;;327.00;121.07;;;;;;;11.04;66.68;100143.66;287896;33;6780;-75
2023/05/13 00:25:01;;;;;;;328.03;122.37;;;;;;;11.04;66.83;100148.88;288035;33;5611;-75
2023/05/13 00:25:11;;;;;;;329.13;123.65;;;;;;;10.99;66.61;100147.28;287984;34;5961;-75
2023/05/13 00:25:22;;;;;;;331.40;124.30;;;;;;;11.02;66.96;100145.47;289218;34;1220;-75
2023/05/13 00:25:32;;;;;;;329.98;120.22;;;;;;;11.00;67.17;100138.50;287410;34;5462;-75
2023/05/13 00:25:43;;;;;;;327.03;119.33;;;;;;;11.03;66.67;100147.16;284252;34;6100;-75
2023/05/13 00:25:53;;;;;;;324.37;119.97;;;;;;;10.99;66.93;100147.28;282627;35;1301;-75
2023/05/13 00:26:04;;;;;;;325.05;121.55;;;;;;;11.03;66.98;100147.16;282411;34;4836;-75
2023/05/13 00:26:14;;;;;;;327.43;122.57;;;;;;;11.05;66.95;100145.34;280898;34;5042;-75
2023/05/13 00:26:25;;;;;;;327.58;122.63;;;;;;;11.09;66.76;100146.97;282583;35;1350;-75
2023/05/13 00:26:35;;;;;;;328.90;124.80;;;;;;;11.08;67.02;100142.63;280312;35;7194;-75
2023/05/13 00:26:46;;;;;;;329.98;125.32;;;;;;;11.11;66.59;100146.00;279267;35;7387;-75
2023/05/13 00:26:56;;;;;;;330.40;125.10;;;;;;;11.12;66.54;100146.84;278598;35;8502;-75
2023/05/13 00:27:07;;;;;;;330.30;123.57;;;;;;;11.16;66.42;100148.47;279909;35;941;-75
2023/05/13 00:27:17;;;;;;;326.70;121.90;;;;;;;11.17;66.62;100144.94;275378;35;8303;-75
2023/05/13 00:29:13;;;;;;;320.23;116.32;;;;;;;11.20;66.71;100150.06;2493531;27;20276;-75
2023/05/13 00:29:23;;;;;;;327.90;121.47;;;;;;;11.21;66.44;100141.31;353014;28;820;-75
2023/05/13 00:29:34;;;;;;;329.42;121.53;;;;;;;11.21;66.57;100143.94;350070;28;1602;-75
2023/05/13 00:29:44;;;;;;;331.20;123.33;;;;;;;11.24;66.68;100151.69;350173;28;871;-75
2023/05/13 00:29:55;;;;;;;330.73;124.10;;;;;;;11.25;66.42;100148.16;350323;28;894;-75
2023/05/13 00:30:06;;;;;;;332.00;124.57;;;;;;;11.23;66.45;100140.34;348678;28;1446;-75
2023/05/13 00:30:16;;;;;;;332.02;123.43;;;;;;;11.25;66.47;100145.53;345830;28;3766;-75
2023/05/13 00:30:27;;;;;;;330.88;123.05;;;;;;;11.23;66.29;100149.97;344279;28;3671;-75
2023/05/13 00:30:38;;;;;;;330.27;124.53;;;;;;;11.25;66.54;100145.53;344651;28;4284;-75
2023/05/13 00:30:48;;;;;;;331.73;126.30;;;;;;;11.23;66.46;100149.97;347293;28;1434;-75
2023/05/13 00:30:59;;;;;;;331.38;126.82;;;;;;;11.23;66.83;100149.97;347502;28;2863;-75
2023/05/13 00:31:10;;;;;;;331.45;126.38;;;;;;;11.22;66.49;100150.88;347006;28;1242;-75
2023/05/13 00:31:20;;;;;;;327.73;124.53;;;;;;;11.21;66.69;100141.31;345943;28;1267;-75
2023/05/13 00:31:30;;;;;;;326.75;124.10;;;;;;;11.21;66.51;100142.16;347412;28;849;-75
2023/05/13 00:31:41;;;;;;;326.90;123.67;;;;;;;11.23;66.60;100149.97;348695;28;1340;-75
2023/05/13 00:31:51;;;;;;;325.15;122.10;;;;;;;11.21;66.37;100142.16;347536;28;830;-75
2023/05/13 00:32:02;;;;;;;324.87;121.33;;;;;;;11.25;66.56;100148.16;347418;28;892;-75
2023/05/13 00:32:12;;;;;;;327.90;121.78;;;;;;;11.24;66.51;100151.69;346585;28;1240;-75
2023/05/13 00:32:23;;;;;;;328.37;122.87;;;;;;;11.23;66.59;100149.97;347522;28;832;-76
2023/05/13 00:32:33;;;;;;;329.10;123.55;;;;;;;11.22;66.54;100145.63;347341;28;1333;-75
2023/05/13 00:32:43;;;;;;;326.53;122.77;;;;;;;11.21;66.36;100146.53;347501;28;1424;-78
2023/05/13 00:32:54;;;;;;;325.25;121.38;;;;;;;11.14;66.16;100139.81;348335;28;955;-76
2023/05/13 00:33:06;;;;;;;324.00;121.13;;;;;;;11.11;66.27;100150.38;344481;28;1327;-76
2023/05/13 00:33:16;;;;;;;323.13;120.00;;;;;;;11.09;66.84;100141.72;343147;28;1312;-75
2023/05/13 00:33:27;;;;;;;322.97;119.80;;;;;;;11.10;66.86;100149.53;343935;28;1492;-75
2023/05/13 00:33:37;;;;;;;324.43;121.53;;;;;;;11.11;66.68;100139.91;346059;28;1236;-76
2023/05/13 00:33:47;;;;;;;326.67;123.67;;;;;;;11.13;66.86;100149.44;344360;28;1285;-75
2023/05/13 00:33:58;;;;;;;325.55;123.13;;;;;;;11.11;66.93;100145.16;343565;28;1245;-74
2023/05/13 00:34:08;;;;;;;325.20;122.47;;;;;;;11.11;67.05;100139.91;345688;28;1270;-75
2023/05/13 00:34:19;;;;;;;324.08;122.13;;;;;;;11.12;67.03;100146.84;344748;28;888;-75
2023/05/13 00:34:29;;;;;;;325.80;123.10;;;;;;;11.11;67.26;100146.00;346131;28;809;-74
2023/05/13 00:34:40;;;;;;;325.35;122.05;;;;;;;11.12;67.12;100142.47;344690;28;1225;-75
2023/05/13 00:34:50;;;;;;;328.07;122.03;;;;;;;11.11;66.92;100142.53;344046;28;1288;-75
2023/05/13 00:35:00;;;;;;;328.58;121.47;;;;;;;11.06;67.20;100144.44;343426;28;946;-75
2023/05/13 00:35:11;;;;;;;328.80;121.07;;;;;;;11.03;67.19;100144.56;344889;28;1214;-75
2023/05/13 00:35:21;;;;;;;326.90;120.82;;;;;;;11.03;67.36;100139.31;344511;28;1232;-75
2023/05/13 00:35:32;;;;;;;325.97;122.43;;;;;;;11.00;67.30;100143.75;340982;28;1302;-75
2023/05/13 00:35:42;;;;;;;328.27;124.40;;;;;;;11.00;67.09;100137.66;338111;29;893;-75
2023/05/13 00:35:52;;;;;;;328.95;123.88;;;;;;;11.03;67.16;100139.31;339990;29;1227;-75
2023/05/13 00:36:03;;;;;;;330.17;122.93;;;;;;;11.04;67.32;100138.41;339667;29;995;-75
2023/05/13 00:36:13;;;;;;;328.10;121.82;;;;;;;11.08;67.17;100142.63;336798;29;1378;-74
2023/05/13 00:36:26;;;;;;;326.55;122.18;;;;;;;11.11;67.13;100139.91;338017;29;1158;-75
2023/05/13 00:36:36;;;;;;;325.30;122.25;;;;;;;11.12;67.32;100141.63;338168;29;952;-75
2023/05/13 00:36:46;;;;;;;323.37;120.23;;;;;;;11.12;66.92;100139.00;338197;29;1523;-75
2023/05/13 00:36:57;;;;;;;323.48;119.22;;;;;;;11.14;67.18;100135.41;336906;29;1276;-75
2023/05/13 00:37:09;;;;;;;324.23;117.97;;;;;;;11.15;66.97;100141.50;338037;29;1639;-75
2023/05/13 00:37:19;;;;;;;327.85;119.53;;;;;;;11.16;67.16;100143.22;334916;29;1826;-75
2023/05/13 00:37:30;;;;;;;328.00;120.20;;;;;;;11.12;66.95;100142.47;339279;29;1078;-75
2023/05/13 00:37:40;;;;;;;329.00;121.85;;;;;;;11.11;67.00;100139.91;340119;29;1216;-75
2023/05/13 00:37:51;;;;;;;330.33;123.05;;;;;;;11.11;67.09;100145.16;339785;28;1377;-75
2023/05/13 00:38:01;;;;;;;329.20;123.00;;;;;;;11.13;67.15;100138.09;335452;29;1907;-74
2023/05/13 00:38:11;;;;;;;327.83;122.53;;;;;;;11.15;67.13;100144.13;339154;29;1393;-74
2023/05/13 00:38:22;;;;;;;328.17;120.83;;;;;;;11.09;67.17;100137.34;338616;29;1348;-74
2023/05/13 00:38:32;;;;;;;328.90;120.73;;;;;;;11.06;67.44;100144.44;338739;29;2108;-74
2023/05/13 00:38:43;;;;;;;325.27;118.35;;;;;;;11.04;67.49;100139.25;335937;29;1311;-74
2023/05/13 00:38:53;;;;;;;325.07;120.87;;;;;;;11.07;67.29;100138.31;334048;29;1405;-74
2023/05/13 00:39:03;;;;;;;327.85;121.60;;;;;;;11.05;67.15;100140.97;335388;29;1459;-75
2023/05/13 00:39:14;;;;;;;333.70;125.20;;;;;;;11.06;67.58;100141.81;336783;29;809;-75
2023/05/13 00:39:24;;;;;;;333.13;124.25;;;;;;;11.06;67.52;100141.81;338453;29;1730;-75
2023/05/13 00:39:35;;;;;;;329.73;123.43;;;;;;;11.10;67.41;100148.69;334361;29;3362;-75
2023/05/13 00:39:45;;;;;;;327.17;123.70;;;;;;;11.10;67.30;100143.44;330441;29;3992;-75
2023/05/13 00:39:55;;;;;;;327.10;125.30;;;;;;;11.11;66.94;100142.53;328756;29;2560;-75
2023/05/13 00:40:09;;;;;;;332.33;127.63;;;;;;;11.12;67.11;100144.25;329952;29;4264;-75
2023/05/13 00:40:20;;;;;;;333.42;125.93;;;;;;;11.15;66.79;100147.59;326881;30;2369;-74
2023/05/13 00:40:31;;;;;;;333.83;124.97;;;;;;;11.17;67.34;100150.19;323781;30;1425;-76
2023/05/13 00:40:41;;;;;;;328.35;120.20;;;;;;;11.19;67.22;100149.22;327518;30;1216;-75
2023/05/13 00:40:52;;;;;;;328.95;121.70;;;;;;;11.19;67.03;100141.34;325923;30;1338;-75
2023/05/13 00:41:02;;;;;;;330.40;123.37;;;;;;;11.21;66.68;100141.31;327459;30;1382;-74
2023/05/13 00:41:13;;;;;;;329.40;124.68;;;;;;;11.25;66.89;100150.78;323551;30;903;-74
2023/05/13 00:41:23;;;;;;;329.77;125.50;;;;;;;11.26;66.75;100145.44;320350;30;2215;-74
2023/05/13 00:41:34;;;;;;;329.77;124.53;;;;;;;11.29;66.44;100150.59;320665;30;2401;-74
2023/05/13 00:41:44;;;;;;;331.10;124.60;;;;;;;11.30;66.24;100146.19;323160;30;1194;-74
2023/05/13 00:41:55;;;;;;;331.70;122.88;;;;;;;11.30;66.63;100143.56;323507;30;2460;-74
2023/05/13 00:42:05;;;;;;;330.13;123.07;;;;;;;11.32;66.53;100145.22;318407;30;2730;-74
2023/05/13 00:42:15;;;;;;;330.23;124.25;;;;;;;11.33;66.53;100146.09;318587;31;805;-74
2023/05/13 00:42:26;;;;;;;328.53;123.80;;;;;;;11.34;66.59;100153.03;319367;30;2519;-74
2023/05/13 00:42:36;;;;;;;329.10;123.83;;;;;;;11.34;66.38;100153.03;319259;30;1984;-76
2023/05/13 00:42:47;;;;;;;330.23;124.65;;;;;;;11.34;66.20;100142.56;321904;30;1331;-76
2023/05/13 00:42:57;;;;;;;331.47;126.17;;;;;;;11.37;66.15;100152.94;320707;30;1087;-76
2023/05/13 00:43:07;;;;;;;332.30;127.30;;;;;;;11.34;66.48;100147.81;317337;30;1820;-76
2023/05/13 00:43:18;;;;;;;331.03;125.33;;;;;;;11.30;66.65;100156.69;316167;31;2225;-75
2023/05/13 00:43:29;;;;;;;328.42;124.30;;;;;;;11.29;66.66;100154.97;315041;31;1223;-76
2023/05/13 00:43:39;;;;;;;326.80;123.13;;;;;;;11.29;67.08;100144.47;310479;31;3031;-75
2023/05/13 00:43:50;;;;;;;326.87;123.90;;;;;;;11.27;66.57;100151.53;307015;31;3310;-74
2023/05/13 00:44:00;;;;;;;328.45;124.25;;;;;;;11.31;66.73;100154.00;307183;32;1805;-74
2023/05/13 00:44:11;;;;;;;333.33;125.60;;;;;;;11.31;66.09;100154.00;306603;32;3316;-76
2023/05/13 00:44:21;;;;;;;331.25;124.25;;;;;;;11.31;66.78;100147.91;307457;31;3481;-75
2023/05/13 00:44:32;;;;;;;332.07;124.77;;;;;;;11.32;66.71;100154.84;309626;31;1225;-75
2023/05/13 00:44:42;;;;;;;329.58;125.55;;;;;;;11.30;66.40;100147.06;307383;32;871;-76
2023/05/13 00:44:52;;;;;;;331.03;127.10;;;;;;;11.34;66.48;100153.03;303202;32;2619;-75
2023/05/13 00:45:03;;;;;;;330.97;128.27;;;;;;;11.34;66.75;100158.28;303391;32;1757;-75
2023/05/13 00:45:14;;;;;;;328.57;126.60;;;;;;;11.36;66.39;100155.59;302093;32;855;-76
2023/05/13 00:45:24;;;;;;;329.92;127.60;;;;;;;11.37;66.60;100152.94;302201;32;2673;-76
2023/05/13 00:45:37;;;;;;;331.10;128.07;;;;;;;11.36;66.38;100155.59;300083;32;3228;-74
2023/05/13 00:45:48;;;;;;;333.77;130.52;;;;;;;11.39;66.35;100161.59;298380;32;4602;-74
2023/05/13 00:45:58;;;;;;;333.03;129.57;;;;;;;11.40;66.57;100158.06;298994;33;1191;-74
2023/05/13 00:46:09;;;;;;;332.73;128.18;;;;;;;11.40;66.38;100157.22;297207;33;4818;-74
2023/05/13 00:46:19;;;;;;;332.00;128.93;;;;;;;11.34;66.40;100153.03;296309;32;4544;-75
2023/05/13 00:46:31;;;;;;;331.67;129.45;;;;;;;11.31;66.81;100147.91;294448;33;1360;-75
2023/05/13 00:46:42;;;;;;;330.52;129.02;;;;;;;11.31;66.75;100158.38;296407;33;5029;-75
2023/05/13 00:46:52;;;;;;;328.17;127.13;;;;;;;11.30;66.75;100157.53;296264;33;4904;-75
2023/05/13 00:47:06;;;;;;;329.80;127.63;;;;;;;11.29;66.50;100155.81;296594;32;3475;-75
2023/05/13 00:47:17;;;;;;;329.80;127.30;;;;;;;11.33;66.93;100153.94;297923;33;869;-75
2023/05/13 00:47:27;;;;;;;327.40;126.35;;;;;;;11.30;66.47;100157.53;291736;33;1754;-75
2023/05/13 00:47:39;;;;;;;325.20;124.97;;;;;;;11.34;66.41;100158.28;288711;33;3867;-75
2023/05/13 00:47:49;;;;;;;327.02;124.80;;;;;;;11.35;66.43;100160.00;286967;33;4950;-75
2023/05/13 00:48:00;;;;;;;333.63;126.73;;;;;;;11.38;66.17;100166.91;291906;33;1337;-75
2023/05/13 00:48:10;;;;;;;334.73;126.05;;;;;;;11.38;66.48;100162.50;286231;33;6387;-75
2023/05/13 00:48:20;;;;;;;335.10;126.97;;;;;;;11.38;66.50;100159.03;284052;34;6893;-75
2023/05/13 00:48:32;;;;;;;331.73;126.03;;;;;;;11.38;66.71;100159.88;285425;34;860;-75
2023/05/13 00:48:42;;;;;;;329.92;127.60;;;;;;;11.37;66.50;100158.19;284189;34;1255;-75
2023/05/13 00:48:53;;;;;;;331.70;128.63;;;;;;;11.38;66.48;100159.88;280491;34;8045;-75
2023/05/13 00:49:03;;;;;;;333.75;132.00;;;;;;;11.34;66.59;100158.28;275345;35;7406;-74
2023/05/13 00:49:14;;;;;;;333.57;130.53;;;;;;;11.35;66.74;100162.63;273819;36;4202;-74
2023/05/13 00:49:24;;;;;;;336.23;130.68;;;;;;;11.37;66.62;100165.19;275654;35;4034;-76
2023/05/13 00:49:35;;;;;;;335.37;128.63;;;;;;;11.37;66.90;100157.31;277555;35;5185;-75
2023/05/13 00:49:45;;;;;;;334.02;129.02;;;;;;;11.37;66.60;100166.03;277288;35;1622;-75
2023/05/13 00:49:56;;;;;;;330.80;128.23;;;;;;;11.33;66.72;100159.19;272676;35;7110;-75
2023/05/13 00:50:08;;;;;;;332.00;127.63;;;;;;;11.32;66.78;100154.84;271828;35;6759;-75
2023/05/13 00:51:55;;;;;;;318.69;116.47;;;;;;;11.26;67.12;100166.41;2501558;27;20936;-75
2023/05/13 00:52:05;;;;;;;322.07;120.40;;;;;;;11.25;66.85;100163.88;351416;28;1630;-75
2023/05/13 00:52:16;;;;;;;324.30;123.28;;;;;;;11.27;67.20;100168.13;348906;28;792;-75
2023/05/13 00:52:26;;;;;;;324.20;124.37;;;;;;;11.30;66.88;100173.25;348810;28;1181;-75
2023/05/13 00:52:37;;;;;;;328.83;124.97;;;;;;;11.29;67.01;100168.91;351663;28;946;-75
2023/05/13 00:52:49;;;;;;;328.25;123.22;;;;;;;11.26;66.79;100157.72;350122;28;855;-75
2023/05/13 00:53:00;;;;;;;331.10;123.80;;;;;;;11.31;67.07;100163.63;348826;28;1437;-75
2023/05/13 00:53:11;;;;;;;330.67;125.22;;;;;;;11.30;67.04;100156.69;348838;28;1350;-76
2023/05/13 00:53:21;;;;;;;329.73;125.95;;;;;;;11.27;66.99;100156.78;348764;28;831;-76